Time;durP1;ratioP1;P1;durP2;ratioP2;P2;SDS_P1;SDS_P2;PMS_P1;PMS_P2;Temp;Humidity;BMP_temperature;BMP_pressure;BME280_temperature;BME280_humidity;BME280_pressure;Samples;Min_cycle;Max_cycle;Signal;HPM_P1;HPM_P2
2022/04/28 00:46:18;;;;;;;11.05;6.90;;;;;;;9.86;67.63;100725.69;1067268;54;20077;31
2022/04/28 00:47:22;;;;;;;10.32;6.88;;;;;;;9.83;67.69;100737.44;1088257;54;20023;-77
2022/04/28 00:51:02;;;;;;;8.82;6.28;;;;;;;9.88;67.81;100722.91;1088107;54;20087;-77
2022/04/28 00:52:05;;;;;;;8.18;6.57;;;;;;;9.89;67.80;100721.94;1088189;54;20033;-77
2022/04/28 00:53:12;;;;;;;7.35;5.68;;;;;;;9.92;67.48;100729.69;1088473;46;20033;-77
2022/04/28 00:54:14;;;;;;;8.15;6.28;;;;;;;9.95;67.60;100729.44;1087868;54;20062;-78
2022/04/28 00:55:18;;;;;;;9.10;6.80;;;;;;;9.96;67.31;100726.66;1088172;54;20034;-78
2022/04/28 00:56:20;;;;;;;8.82;6.32;;;;;;;9.94;67.46;100725.06;1089430;46;20631;-78
2022/04/28 00:57:25;;;;;;;7.03;5.60;;;;;;;10.00;67.55;100732.59;1088260;54;20038;-78
2022/04/28 00:58:27;;;;;;;9.80;6.05;;;;;;;9.95;67.54;100732.09;1088178;47;20034;-77
2022/04/28 00:59:32;;;;;;;8.20;6.22;;;;;;;9.94;67.65;100727.72;1089176;46;20042;-77
2022/04/28 01:00:34;;;;;;;9.05;6.60;;;;;;;9.95;67.47;100729.44;1088220;54;20045;-78
2022/04/28 01:01:41;;;;;;;8.10;5.82;;;;;;;9.90;67.95;100728.97;1088203;54;20042;-78
2022/04/28 01:02:43;;;;;;;8.73;6.82;;;;;;;9.89;67.76;100729.94;1089598;46;20034;-78
2022/04/28 01:03:47;;;;;;;8.23;6.30;;;;;;;9.82;67.99;100733.09;1088212;54;20035;-78
2022/04/28 01:04:49;;;;;;;8.20;7.00;;;;;;;9.77;68.16;100727.28;1088918;46;20725;-77
2022/04/28 01:05:53;;;;;;;10.70;7.65;;;;;;;9.69;68.57;100735.06;1089385;46;20054;-79
2022/04/28 01:06:55;;;;;;;9.50;7.03;;;;;;;9.63;68.68;100740.88;1088165;54;20026;-77
2022/04/28 01:46:53;;;;;;;10.27;6.70;;;;;;;9.19;69.74;100759.41;1087578;54;20059;-80
2022/04/28 01:47:55;;;;;;;9.88;6.90;;;;;;;9.20;69.57;100753.94;1088307;54;20073;-79
2022/04/28 01:49:00;;;;;;;9.73;7.00;;;;;;;9.16;69.63;100757.81;1088487;54;20046;-81
2022/04/28 01:50:04;;;;;;;10.07;7.53;;;;;;;9.13;69.87;100755.41;1088253;54;20019;-80
2022/04/28 01:55:08;;;;;;;8.05;6.20;;;;;;;9.13;69.78;100751.84;1088245;54;20034;-79
2022/04/28 01:56:11;;;;;;;10.25;6.45;;;;;;;9.10;69.72;100758.28;1088340;54;20031;-79
2022/04/28 01:57:15;;;;;;;8.07;5.97;;;;;;;9.13;69.88;100760.72;1088293;54;20034;-81
2022/04/28 01:58:17;;;;;;;7.97;6.00;;;;;;;9.09;69.66;100753.91;1089332;39;20431;-80
2022/04/28 01:59:22;;;;;;;9.07;6.65;;;;;;;9.05;69.85;100753.31;1088229;54;20035;-81
2022/04/28 02:00:32;;;;;;;9.80;7.15;;;;;;;9.04;69.93;100761.44;1088213;54;20023;-80
2022/04/28 02:01:34;;;;;;;;;;;;;;;8.98;70.18;100757.41;1088555;54;20025;-81
2022/04/28 02:02:41;;;;;;;9.07;6.45;;;;;;;9.00;69.94;100752.81;1088434;54;19923;-82
2022/04/28 02:03:43;;;;;;;8.25;6.10;;;;;;;8.97;69.94;100757.53;1088499;54;20019;-81
2022/04/28 02:04:47;;;;;;;8.30;6.47;;;;;;;8.94;70.03;100755.09;1088454;54;20720;-81
2022/04/28 02:05:49;;;;;;;7.85;6.30;;;;;;;8.93;70.31;100753.41;1088425;54;20018;-82
2022/04/28 02:07:24;;;;;;;8.90;6.25;;;;;;;8.92;70.60;100746.34;1088455;54;20015;-81
2022/04/28 02:08:26;;;;;;;7.82;6.00;;;;;;;8.90;70.01;100750.00;1088515;54;20018;-82
2022/04/28 02:09:45;;;;;;;8.48;6.05;;;;;;;8.92;70.05;100751.69;1088532;54;20027;-81
2022/04/28 02:12:40;;;;;;;8.73;5.78;;;;;;;8.88;70.15;100748.41;1088453;54;20026;-81
2022/04/28 02:13:42;;;;;;;8.45;6.18;;;;;;;8.91;70.07;100750.84;1092254;47;20058;-82
2022/04/28 02:14:48;;;;;;;8.85;6.13;;;;;;;8.92;70.31;100752.56;1097138;47;20066;-81
2022/04/28 02:16:55;;;;;;;9.07;6.20;;;;;;;8.89;70.26;100752.78;1085419;54;20038;-77
2022/04/28 02:17:59;;;;;;;8.48;5.97;;;;;;;8.87;70.35;100749.38;1085995;54;20034;-77
2022/04/28 02:19:03;;;;;;;8.13;6.25;;;;;;;8.82;70.21;100757.72;1086310;47;20559;-78
2022/04/28 02:20:07;;;;;;;9.52;6.47;;;;;;;8.81;70.47;100750.69;1086218;54;20038;-78
2022/04/28 02:21:12;;;;;;;8.68;6.15;;;;;;;8.83;70.35;100751.44;1086465;54;20056;-77
2022/04/28 02:22:13;;;;;;;8.55;6.75;;;;;;;8.78;70.46;100755.41;1086269;54;20031;-78
2022/04/28 02:23:17;;;;;;;8.88;6.60;;;;;;;8.73;70.66;100763.75;1086088;54;20069;-78
2022/04/28 02:24:19;;;;;;;8.90;7.00;;;;;;;8.58;71.07;100761.28;1086545;54;20026;-78
2022/04/28 02:25:25;;;;;;;11.30;7.47;;;;;;;8.64;70.98;100761.78;1086460;54;20559;-78
2022/04/28 02:26:26;;;;;;;9.10;6.30;;;;;;;8.66;71.10;100762.50;1086546;54;20034;-78
2022/04/28 02:27:31;;;;;;;8.52;6.10;;;;;;;8.67;70.90;100764.22;1086352;54;20035;-77
2022/04/28 02:28:33;;;;;;;9.15;6.35;;;;;;;8.69;70.73;100756.97;1086640;54;20043;-78
2022/04/28 02:29:37;;;;;;;12.15;6.65;;;;;;;8.66;71.10;100755.34;1088058;46;20062;-78
2022/04/28 02:30:40;;;;;;;9.90;6.20;;;;;;;8.72;70.62;100759.38;1087968;46;20030;-78
2022/04/28 02:31:44;;;;;;;7.40;5.88;;;;;;;8.76;70.82;100760.88;1087698;54;20034;-78
2022/04/28 02:34:08;;;;;;;8.20;6.35;;;;;;;8.66;71.00;100768.69;1086157;54;20038;-78
2022/04/28 02:35:09;;;;;;;7.68;6.03;;;;;;;8.69;70.95;100764.97;1086922;54;20036;-78
2022/04/28 02:36:14;;;;;;;11.00;6.97;;;;;;;8.68;70.71;100768.59;1087658;54;20061;-78
2022/04/28 02:37:18;;;;;;;8.70;6.07;;;;;;;8.62;70.88;100761.03;1087430;54;20027;-77
2022/04/28 02:38:20;;;;;;;9.10;6.13;;;;;;;8.69;70.96;100757.81;1086951;54;20052;-77
2022/04/28 02:39:26;;;;;;;10.98;7.05;;;;;;;8.67;70.80;100764.22;1087581;54;20033;-77
2022/04/28 02:40:28;;;;;;;9.10;7.05;;;;;;;8.63;71.09;100762.75;1087579;46;20037;-77
2022/04/28 02:41:32;;;;;;;9.50;6.80;;;;;;;8.58;71.22;100765.75;1090210;31;20479;-77
2022/04/28 02:42:34;;;;;;;8.98;6.68;;;;;;;8.51;71.17;100769.84;1086530;54;20057;-78
2022/04/28 02:43:38;;;;;;;9.40;6.80;;;;;;;8.51;71.32;100769.84;1086647;54;20054;-79
2022/04/28 02:44:40;;;;;;;10.70;7.10;;;;;;;8.47;71.26;100773.66;1086808;46;20035;-79
2022/04/28 02:45:44;;;;;;;9.25;6.55;;;;;;;8.48;71.13;100770.06;1087100;54;20564;-80
2022/04/28 02:46:48;;;;;;;7.65;6.05;;;;;;;8.44;71.33;100772.06;1087652;39;20424;-78
2022/04/28 02:47:50;;;;;;;9.45;6.70;;;;;;;8.43;71.33;100768.56;1087286;54;20054;-79
2022/04/28 02:48:55;;;;;;;9.15;6.38;;;;;;;8.45;71.10;100770.28;1087428;54;20050;-79
2022/04/28 02:49:59;;;;;;;7.22;6.05;;;;;;;8.38;71.42;100770.69;1087061;54;20042;-79
2022/04/28 02:51:03;;;;;;;8.43;5.68;;;;;;;8.43;71.34;100770.38;1087511;54;20688;-79
2022/04/28 02:52:05;;;;;;;8.00;5.78;;;;;;;8.44;71.12;100769.41;1087836;54;20031;-79
2022/04/28 02:53:09;;;;;;;7.97;6.10;;;;;;;8.43;71.27;100770.38;1087783;54;20045;-79
2022/04/28 02:54:11;;;;;;;9.07;5.80;;;;;;;8.46;71.38;100770.16;1087903;54;20031;-79
2022/04/28 02:55:15;;;;;;;7.93;6.15;;;;;;;8.47;71.31;100768.31;1087782;54;20039;-79
2022/04/28 02:56:19;;;;;;;7.32;6.07;;;;;;;8.49;71.16;100766.44;1087220;54;20042;-79
2022/04/28 02:57:21;;;;;;;7.90;5.88;;;;;;;8.50;71.37;100771.63;1087466;54;20048;-79
2022/04/28 02:58:25;;;;;;;7.85;6.00;;;;;;;8.44;71.21;100769.41;1087389;54;20038;-79
2022/04/28 02:59:26;;;;;;;8.65;5.72;;;;;;;8.48;71.19;100765.59;1087639;54;20053;-79
2022/04/28 03:00:31;;;;;;;9.82;6.00;;;;;;;8.43;71.12;100767.69;1087621;54;20027;-79
2022/04/28 03:01:32;;;;;;;10.15;7.10;;;;;;;8.42;71.42;100768.66;1087517;54;20122;-79
2022/04/28 03:02:36;;;;;;;9.00;6.40;;;;;;;8.45;71.34;100776.44;1087512;54;20039;-79
2022/04/28 03:03:40;;;;;;;7.28;5.38;;;;;;;8.46;71.27;100772.81;1087446;54;20042;-79
2022/04/28 03:04:42;;;;;;;7.57;5.95;;;;;;;8.50;71.25;100771.63;1087839;54;20065;-79
2022/04/28 03:10:55;;;;;;;8.40;5.75;;;;;;;8.42;71.13;100776.66;1088049;54;20090;-78
2022/04/28 03:11:57;;;;;;;9.48;6.25;;;;;;;8.36;71.47;100771.78;1090442;39;20894;-80
2022/04/28 03:13:01;;;;;;;10.18;6.20;;;;;;;8.37;71.34;100774.31;1088033;46;20034;-79
2022/04/28 03:14:06;;;;;;;7.97;5.88;;;;;;;8.42;71.19;100776.66;1087934;54;20038;-79
2022/04/28 03:15:09;;;;;;;7.18;5.47;;;;;;;8.42;71.28;100776.66;1087995;54;20061;-79
2022/04/28 03:16:13;;;;;;;10.02;6.57;;;;;;;8.37;71.37;100777.00;1087826;54;20105;-78
2022/04/28 03:17:14;;;;;;;9.57;6.10;;;;;;;8.31;71.64;100779.28;1088164;54;20046;-79
2022/04/28 03:18:19;;;;;;;8.07;6.10;;;;;;;8.31;71.72;100777.44;1087879;54;20031;-78
2022/04/28 03:19:21;;;;;;;8.43;5.85;;;;;;;8.33;71.53;100777.31;1088193;54;20064;-78
2022/04/28 03:20:25;;;;;;;10.13;6.63;;;;;;;8.32;71.46;100776.50;1088143;54;20611;-77
2022/04/28 03:21:31;;;;;;;8.90;6.35;;;;;;;8.26;71.49;100775.13;1088215;54;20046;-78
2022/04/28 03:22:35;;;;;;;9.57;6.07;;;;;;;8.22;71.64;100786.94;1088617;46;20048;-77
2022/04/28 03:23:37;;;;;;;9.60;6.05;;;;;;;8.26;71.69;100782.28;1087812;54;20030;-78
2022/04/28 03:24:41;;;;;;;8.88;6.57;;;;;;;8.21;71.49;100784.41;1088223;54;20125;-78
2022/04/28 03:25:43;;;;;;;9.30;6.38;;;;;;;8.20;71.75;100783.56;1088179;54;20031;-78
2022/04/28 03:26:48;;;;;;;10.23;6.38;;;;;;;8.19;71.92;100787.19;1088219;54;20058;-78
2022/04/28 03:27:50;;;;;;;8.32;6.15;;;;;;;8.20;71.68;100783.56;1088280;54;20030;-77
2022/04/28 03:28:54;;;;;;;9.88;6.57;;;;;;;8.20;71.54;100786.25;1088164;54;20087;-78
2022/04/28 03:29:56;;;;;;;8.55;6.20;;;;;;;8.20;71.83;100782.69;1088265;54;20619;-78
2022/04/28 03:31:00;;;;;;;9.40;6.20;;;;;;;8.21;71.55;100790.59;1088242;54;20038;-78
2022/04/28 03:32:02;;;;;;;8.63;6.63;;;;;;;8.18;71.91;100788.16;1088277;54;20034;-78
2022/04/28 03:33:06;;;;;;;8.63;6.47;;;;;;;8.19;71.88;100787.19;1088166;54;20090;-78
2022/04/28 03:34:11;;;;;;;8.85;7.13;;;;;;;8.15;71.77;100785.69;1088050;54;20035;-77
2022/04/28 03:35:12;;;;;;;7.97;5.90;;;;;;;8.20;71.67;100794.22;1088195;54;20034;-77
2022/04/28 03:37:35;;;;;;;9.10;6.35;;;;;;;8.10;72.17;100788.69;1088158;54;20040;-77
2022/04/28 03:38:37;;;;;;;11.15;7.18;;;;;;;8.09;71.80;100797.66;1087965;54;20022;-77
2022/04/28 03:39:41;;;;;;;8.20;6.82;;;;;;;8.11;72.05;100794.91;1090156;39;20521;-78
2022/04/28 03:40:46;;;;;;;11.55;7.47;;;;;;;8.08;72.12;100803.09;1088115;54;20030;-79
2022/04/28 03:41:47;;;;;;;8.80;6.22;;;;;;;8.10;72.00;100793.19;1088260;54;20041;-79
2022/04/28 03:42:52;;;;;;;10.65;6.88;;;;;;;8.07;71.83;100790.72;1088239;54;20560;-79
2022/04/28 03:43:53;;;;;;;10.95;7.03;;;;;;;8.08;71.88;100800.44;1088240;54;20064;-79
2022/04/28 03:44:58;;;;;;;9.38;7.20;;;;;;;8.04;71.94;100797.13;1088710;46;20018;-79
2022/04/28 03:45:59;;;;;;;9.40;7.47;;;;;;;8.02;72.21;100795.56;1086733;54;20054;-80
2022/04/28 03:47:03;;;;;;;10.77;7.15;;;;;;;8.02;71.94;100800.88;1088151;46;20131;-78
2022/04/28 03:48:09;;;;;;;8.85;6.70;;;;;;;7.95;72.40;100797.78;1086877;54;20561;-77
2022/04/28 03:49:11;;;;;;;9.07;7.43;;;;;;;7.97;72.24;100794.06;1086906;54;20061;-78
2022/04/28 03:50:15;;;;;;;9.23;7.13;;;;;;;7.96;72.25;100795.00;1086966;54;20046;-77
2022/04/28 03:51:17;;;;;;;8.85;6.80;;;;;;;7.94;72.17;100810.25;1086687;54;20034;-78
2022/04/28 03:52:21;;;;;;;8.15;6.28;;;;;;;7.95;72.13;100806.63;1086916;54;20050;-79
2022/04/28 03:53:25;;;;;;;8.63;6.53;;;;;;;7.99;72.37;100807.25;1087346;54;20111;-78
2022/04/28 03:54:29;;;;;;;8.25;6.20;;;;;;;7.95;72.17;100803.13;1087596;54;20064;-79
2022/04/28 03:55:31;;;;;;;8.52;6.13;;;;;;;7.96;72.29;100795.00;1087296;54;20062;-78
2022/04/28 03:56:36;;;;;;;9.63;6.50;;;;;;;7.97;72.12;100799.38;1086704;54;20042;-79
2022/04/28 03:57:37;;;;;;;8.00;6.38;;;;;;;7.97;72.25;100796.72;1087766;39;20433;-78
2022/04/28 03:58:42;;;;;;;7.63;5.90;;;;;;;8.03;71.82;100802.59;1087053;54;20094;-78
2022/04/28 03:59:43;;;;;;;7.90;6.55;;;;;;;7.94;72.11;100802.25;1087313;54;20035;-79
2022/04/28 04:00:49;;;;;;;10.15;6.30;;;;;;;7.97;72.27;100799.38;1087143;54;20090;-78
2022/04/28 04:01:51;;;;;;;9.82;7.22;;;;;;;7.89;72.38;100803.53;1087267;54;20066;-78
2022/04/28 04:02:56;;;;;;;8.15;5.85;;;;;;;7.90;72.16;100800.78;1087484;54;20034;-78
2022/04/28 04:03:57;;;;;;;8.85;6.57;;;;;;;7.91;72.15;100804.28;1087432;54;20038;-78
2022/04/28 04:05:01;;;;;;;7.82;6.10;;;;;;;7.92;72.01;100804.19;1092756;39;20484;-79
2022/04/28 04:06:03;;;;;;;9.70;6.38;;;;;;;7.90;72.31;100805.25;1087231;54;20030;-80
2022/04/28 04:07:07;;;;;;;8.02;6.18;;;;;;;7.93;71.94;100810.34;1087028;54;20049;-80
2022/04/28 04:08:09;;;;;;;8.15;6.25;;;;;;;7.93;72.00;100811.22;1087009;54;20038;-77
2022/04/28 04:09:16;;;;;;;7.82;5.95;;;;;;;7.90;72.21;100815.91;1087147;47;20801;-77
2022/04/28 04:10:20;;;;;;;8.52;6.70;;;;;;;7.89;72.06;100817.72;1086932;54;20034;-78
2022/04/28 04:11:22;;;;;;;9.02;6.32;;;;;;;7.91;72.07;100815.81;1088728;46;20037;-78
2022/04/28 04:12:26;;;;;;;8.15;6.30;;;;;;;7.94;72.10;100814.72;1087112;54;20038;-79
2022/04/28 04:13:27;;;;;;;9.43;6.93;;;;;;;7.89;72.14;100812.41;1086749;54;20057;-79
2022/04/28 04:14:32;;;;;;;9.35;6.57;;;;;;;7.87;72.45;100819.63;1087186;54;20046;-79
2022/04/28 04:15:36;;;;;;;9.18;6.65;;;;;;;7.85;72.57;100810.06;1090083;46;20046;-78
2022/04/28 04:16:38;;;;;;;10.20;6.85;;;;;;;7.85;72.23;100815.38;1087344;46;20079;-78
2022/04/28 04:17:45;;;;;;;9.65;6.85;;;;;;;7.84;72.37;100813.69;1087644;39;20457;-77
2022/04/28 04:18:47;;;;;;;10.65;6.97;;;;;;;7.83;72.39;100815.50;1087194;54;20027;-78
2022/04/28 04:19:51;;;;;;;8.02;6.25;;;;;;;7.81;72.25;100812.94;1086998;54;20123;-77
2022/04/28 04:20:55;;;;;;;8.48;6.45;;;;;;;7.83;72.61;100817.28;1087264;54;20030;-78
2022/04/28 04:21:58;;;;;;;9.95;6.80;;;;;;;7.82;72.32;100811.13;1087214;39;20444;-78
2022/04/28 04:23:05;;;;;;;9.60;6.35;;;;;;;7.78;72.44;100820.28;1087092;46;20098;-78
2022/04/28 04:24:09;;;;;;;8.07;6.45;;;;;;;7.79;72.46;100816.66;1086954;54;20026;-77
2022/04/28 04:25:14;;;;;;;11.38;6.80;;;;;;;7.78;72.68;100821.16;1086832;54;20043;-77
2022/04/28 04:26:18;;;;;;;9.35;6.88;;;;;;;7.79;72.61;100820.16;1087258;54;20066;-77
2022/04/28 04:27:19;;;;;;;9.35;6.80;;;;;;;7.82;72.40;100824.44;1087277;54;20065;-77
2022/04/28 04:28:24;;;;;;;8.15;6.65;;;;;;;7.79;72.58;100820.16;1087473;54;20026;-76
2022/04/28 04:29:25;;;;;;;7.55;6.00;;;;;;;7.83;72.61;100818.16;1087937;39;20802;-77
2022/04/28 04:33:02;;;;;;;11.57;6.63;;;;;;;7.79;72.69;100821.97;1087056;54;20579;-77
2022/04/28 04:34:13;;;;;;;9.88;6.80;;;;;;;7.79;72.58;100827.31;1087224;54;20022;-78
2022/04/28 04:35:15;;;;;;;10.57;6.82;;;;;;;7.80;72.44;100831.69;1088416;46;20027;-78
2022/04/28 04:36:19;;;;;;;12.25;7.22;;;;;;;7.77;72.46;100818.56;1088290;54;20635;-77
2022/04/28 04:37:21;;;;;;;10.68;7.32;;;;;;;7.79;72.44;100828.16;1088412;54;20034;-77
2022/04/28 04:38:25;;;;;;;10.27;6.38;;;;;;;7.84;72.61;100825.16;1088296;54;20050;-77
2022/04/28 04:39:27;;;;;;;8.68;6.80;;;;;;;7.85;72.38;100826.88;1087939;54;20050;-77
2022/04/28 04:40:34;;;;;;;9.23;7.13;;;;;;;7.84;72.58;100835.81;1087493;54;20037;-78
2022/04/28 04:41:35;;;;;;;8.32;6.63;;;;;;;7.80;72.55;100834.34;1088703;46;20548;-76
2022/04/28 04:42:39;;;;;;;9.32;7.00;;;;;;;7.80;72.39;100839.66;1087285;54;20034;-78
2022/04/28 04:43:41;;;;;;;9.63;7.28;;;;;;;7.78;72.50;100838.91;1087237;54;20038;-77
2022/04/28 04:44:45;;;;;;;10.52;6.97;;;;;;;7.78;72.55;100836.25;1087922;39;20452;-78
2022/04/28 04:45:47;;;;;;;8.70;6.50;;;;;;;7.82;72.69;100843.06;1086602;54;20623;-78
2022/04/28 04:46:51;;;;;;;9.75;6.80;;;;;;;7.80;72.66;100839.66;1086646;54;20066;-78
2022/04/28 04:47:53;;;;;;;9.50;6.70;;;;;;;7.85;72.58;100837.50;1087122;54;20030;-78
2022/04/28 04:48:57;;;;;;;8.75;6.50;;;;;;;7.83;72.18;100843.91;1087229;54;20073;-78
2022/04/28 04:49:58;;;;;;;11.20;7.18;;;;;;;7.82;72.51;100840.41;1087289;54;20043;-77
2022/04/28 04:51:02;;;;;;;10.65;6.75;;;;;;;7.85;72.22;100845.50;1087405;54;20034;-78
2022/04/28 04:52:04;;;;;;;9.35;6.93;;;;;;;7.86;72.24;100852.53;1087072;54;20049;-78
2022/04/28 04:53:09;;;;;;;10.70;7.20;;;;;;;7.86;72.08;100844.53;1087167;54;20095;-78
2022/04/28 04:54:16;;;;;;;9.20;6.80;;;;;;;7.88;72.12;100847.97;1087635;54;20031;-78
2022/04/28 04:55:20;;;;;;;11.48;7.30;;;;;;;7.86;72.21;100849.03;1088526;46;20042;-77
2022/04/28 04:56:24;;;;;;;14.23;7.45;;;;;;;7.84;72.67;100854.44;1089613;46;20029;-78
2022/04/28 04:57:28;;;;;;;12.05;7.30;;;;;;;7.83;72.61;100850.09;1089502;46;20031;-78
2022/04/28 04:58:31;;;;;;;10.65;7.05;;;;;;;7.87;72.51;100856.06;1088025;54;20042;-77
2022/04/28 04:59:35;;;;;;;10.07;7.57;;;;;;;7.86;72.34;100855.19;1088036;54;20046;-79
2022/04/28 05:00:43;;;;;;;10.35;7.78;;;;;;;7.88;72.36;100861.28;1087879;54;20041;-78
2022/04/28 05:01:47;;;;;;;11.45;7.10;;;;;;;7.89;72.20;100860.31;1088013;54;20057;-78
2022/04/28 05:02:49;;;;;;;12.50;7.55;;;;;;;7.90;72.32;100856.69;1087944;54;20030;-78
2022/04/28 05:03:53;;;;;;;9.40;6.38;;;;;;;7.93;72.16;100853.84;1087659;54;20043;-78
2022/04/28 05:04:54;;;;;;;12.90;7.18;;;;;;;7.95;72.19;100862.53;1087780;54;20035;-78
2022/04/28 05:05:59;;;;;;;9.65;7.05;;;;;;;7.97;72.09;100857.97;1087857;54;20034;-77
2022/04/28 05:07:00;;;;;;;9.80;6.97;;;;;;;8.00;72.18;100856.88;1087929;54;20038;-79
2022/04/28 05:08:05;;;;;;;10.32;6.82;;;;;;;8.06;71.94;100860.94;1088085;54;20038;-78
2022/04/28 05:09:06;;;;;;;9.95;6.97;;;;;;;8.03;71.78;100871.81;1090275;46;20053;-78
2022/04/28 05:10:11;;;;;;;9.82;7.07;;;;;;;8.03;72.03;100861.16;1088101;54;20046;-78
2022/04/28 05:11:13;;;;;;;12.50;6.68;;;;;;;8.05;71.59;100864.56;1088277;54;20087;-78
2022/04/28 05:12:19;;;;;;;10.85;7.40;;;;;;;8.05;71.83;100869.88;1088275;54;20038;-78
2022/04/28 05:13:21;;;;;;;9.55;6.63;;;;;;;8.07;71.75;100865.31;1088204;54;20034;-78
2022/04/28 05:14:25;;;;;;;9.30;6.35;;;;;;;8.09;71.72;100877.53;1088156;54;20035;-77
2022/04/28 05:15:27;;;;;;;12.65;7.72;;;;;;;8.10;71.59;100870.41;1088297;46;20042;-78
2022/04/28 05:16:32;;;;;;;11.07;6.80;;;;;;;8.12;71.70;100868.50;1087952;54;20622;-77
2022/04/28 05:17:35;;;;;;;10.77;6.53;;;;;;;8.15;71.50;100872.75;1087338;54;20041;-79
2022/04/28 05:18:39;;;;;;;9.45;6.65;;;;;;;8.20;71.37;100874.13;1087879;54;20038;-78
2022/04/28 05:19:41;;;;;;;10.45;6.68;;;;;;;8.22;71.31;100872.19;1088138;54;20034;-78
2022/04/28 05:20:46;;;;;;;11.75;6.88;;;;;;;8.19;71.72;100879.56;1087992;54;20077;-78
2022/04/28 05:21:47;;;;;;;11.52;7.20;;;;;;;8.18;71.61;100878.72;1088383;46;20039;-79
2022/04/28 05:22:52;;;;;;;8.82;6.88;;;;;;;8.24;71.70;100886.25;1087599;54;20030;-78
2022/04/28 05:23:53;;;;;;;8.73;6.72;;;;;;;8.26;71.27;100878.19;1087524;54;20038;-78
2022/04/28 05:24:57;;;;;;;10.73;8.02;;;;;;;8.26;71.49;100887.00;1087554;54;20037;-78
2022/04/28 05:25:59;;;;;;;9.48;6.93;;;;;;;8.30;71.56;100887.63;1087821;54;21020;-79
2022/04/28 05:27:03;;;;;;;10.20;7.05;;;;;;;8.34;71.42;100882.94;1087895;54;20749;-78
2022/04/28 05:28:08;;;;;;;10.65;7.50;;;;;;;8.33;71.51;100887.44;1087754;54;20051;-77
2022/04/28 05:29:13;;;;;;;11.90;8.25;;;;;;;8.33;71.34;100889.22;1087770;54;20041;-78
2022/04/28 05:30:14;;;;;;;10.20;7.38;;;;;;;8.36;71.08;100891.69;1087706;54;20074;-78
2022/04/28 05:31:19;;;;;;;11.27;8.50;;;;;;;8.38;71.15;100887.09;1087611;54;20041;-78
2022/04/28 05:32:21;;;;;;;11.23;7.47;;;;;;;8.40;71.03;100886.03;1089245;39;20559;-78
2022/04/28 05:33:26;;;;;;;13.63;7.35;;;;;;;8.45;70.82;100888.34;1087842;54;20027;-78
2022/04/28 05:34:27;;;;;;;10.95;7.25;;;;;;;8.45;71.12;100891.03;1094171;39;20669;-77
2022/04/28 05:35:33;;;;;;;11.68;7.20;;;;;;;8.42;71.09;100896.56;1088868;31;20616;-79
2022/04/28 05:36:36;;;;;;;10.38;7.00;;;;;;;8.49;71.14;100895.22;1088835;47;20033;-77
2022/04/28 05:37:42;;;;;;;13.93;7.70;;;;;;;8.49;70.83;100889.88;1087864;54;20034;-78
2022/04/28 05:38:44;;;;;;;10.23;6.93;;;;;;;8.53;70.75;100888.69;1087855;54;20596;-78
2022/04/28 05:39:49;;;;;;;13.40;7.93;;;;;;;8.61;70.78;100887.25;1087711;54;20030;-77
2022/04/28 05:40:51;;;;;;;12.57;7.95;;;;;;;8.60;70.49;100874.94;1087863;54;20026;-78
2022/04/28 05:41:56;;;;;;;12.68;6.93;;;;;;;8.69;70.69;100884.91;1088019;54;20019;-78
2022/04/28 05:45:46;;;;;;;12.65;8.45;;;;;;;8.75;70.13;100884.47;1089944;39;22543;-78
2022/04/28 05:46:50;;;;;;;12.20;7.80;;;;;;;8.64;70.38;100893.25;1088056;54;20031;-78
2022/04/28 05:47:53;;;;;;;10.43;7.07;;;;;;;8.64;70.42;100892.38;1088094;54;20611;-77
2022/04/28 05:48:57;;;;;;;12.02;7.60;;;;;;;8.69;70.40;100896.41;1087892;54;20115;-78
2022/04/28 05:50:00;;;;;;;8.70;6.53;;;;;;;8.79;69.96;100888.59;1087879;54;20029;-78
2022/04/28 05:51:05;;;;;;;10.23;6.75;;;;;;;8.84;70.11;100888.25;1087909;54;20031;-78
2022/04/28 05:52:10;;;;;;;12.20;6.78;;;;;;;8.81;69.96;100886.66;1088152;54;20022;-77
2022/04/28 05:53:12;;;;;;;13.00;8.20;;;;;;;8.74;70.02;100890.75;1088100;54;20026;-78
2022/04/28 05:54:16;;;;;;;11.93;8.10;;;;;;;8.72;70.04;100895.34;1088165;54;20020;-78
2022/04/28 05:55:18;;;;;;;11.00;7.57;;;;;;;8.73;69.94;100889.03;1088099;54;20058;-78
2022/04/28 05:56:23;;;;;;;13.13;8.50;;;;;;;8.74;69.98;100888.91;1087660;54;20031;-79
2022/04/28 05:57:25;;;;;;;10.25;7.80;;;;;;;8.82;69.86;100895.53;1088056;54;20043;-78
2022/04/28 05:58:29;;;;;;;10.82;8.50;;;;;;;8.80;69.94;100892.97;1088710;39;20191;-78
2022/04/28 05:59:36;;;;;;;13.02;9.48;;;;;;;8.66;70.25;100891.31;1087870;54;20030;-80
2022/04/28 06:00:38;;;;;;;10.48;7.97;;;;;;;8.79;70.19;100896.59;1086985;54;20040;-80
2022/04/28 06:01:42;;;;;;;13.50;8.55;;;;;;;8.79;69.89;100899.25;1087092;54;20038;-79
2022/04/28 06:02:46;;;;;;;11.23;9.02;;;;;;;8.83;70.04;100892.75;1086911;54;20034;-80
2022/04/28 06:03:53;;;;;;;11.07;8.77;;;;;;;8.81;70.20;100900.00;1087040;54;20077;-80
2022/04/28 06:04:58;;;;;;;15.32;8.70;;;;;;;8.87;70.11;100902.22;1087242;54;20039;-80
2022/04/28 06:06:06;;;;;;;17.88;8.52;;;;;;;8.83;70.04;100895.41;1086765;54;20026;-79
2022/04/28 06:07:08;;;;;;;18.23;8.77;;;;;;;8.81;70.10;100901.81;1087119;54;20030;-79
2022/04/28 06:08:12;;;;;;;16.42;8.43;;;;;;;8.92;69.76;100906.34;1086801;54;20027;-80
2022/04/28 06:09:14;;;;;;;14.43;7.80;;;;;;;9.04;69.71;100916.13;1086503;54;20027;-79
2022/04/28 06:10:19;;;;;;;12.68;7.55;;;;;;;9.05;69.66;100907.16;1086336;54;20034;-80
2022/04/28 06:11:21;;;;;;;15.80;8.07;;;;;;;9.09;69.56;100905.13;1086818;54;20061;-79
2022/04/28 06:12:29;;;;;;;13.20;7.63;;;;;;;9.14;69.17;100898.47;1086624;54;20038;-79
2022/04/28 06:13:33;;;;;;;10.52;7.68;;;;;;;9.18;69.08;100905.28;1087525;39;20455;-80
2022/04/28 06:14:39;;;;;;;10.43;7.38;;;;;;;9.27;69.17;100908.22;1086979;54;20048;-80
2022/04/28 06:15:43;;;;;;;13.40;8.32;;;;;;;9.27;69.00;100906.41;1086940;54;20038;-80
2022/04/28 06:16:47;;;;;;;13.20;7.68;;;;;;;9.26;68.89;100911.88;1086982;54;20038;-80
2022/04/28 06:17:52;;;;;;;13.15;9.18;;;;;;;9.30;68.42;100908.00;1086536;54;20049;-80
2022/04/28 06:18:56;;;;;;;18.15;9.25;;;;;;;9.32;68.47;100908.72;1086432;54;20038;-80
2022/04/28 06:19:58;;;;;;;17.30;10.30;;;;;;;9.30;68.64;100911.53;1087051;54;20642;-80
2022/04/28 06:21:02;;;;;;;16.23;8.65;;;;;;;9.34;68.65;100907.66;1087670;54;20081;-80
2022/04/28 06:22:04;;;;;;;13.85;9.30;;;;;;;9.38;68.57;100916.25;1087914;54;20050;-80
2022/04/28 06:23:09;;;;;;;10.45;7.55;;;;;;;9.45;68.40;100920.16;1088130;54;20647;-81
2022/04/28 06:24:11;;;;;;;11.52;8.35;;;;;;;9.45;68.57;100914.81;1087984;54;20066;-80
2022/04/28 06:25:16;;;;;;;17.17;9.07;;;;;;;9.49;68.27;100910.97;1088489;54;20068;-80
2022/04/28 06:26:18;;;;;;;13.20;7.70;;;;;;;9.58;68.44;100913.91;1088408;54;20042;-81
2022/04/28 06:27:28;;;;;;;13.35;8.15;;;;;;;9.60;68.19;100914.66;1088560;54;20018;-82
2022/04/28 06:28:32;;;;;;;13.52;7.82;;;;;;;9.60;68.28;100915.47;1087726;54;20042;-81
2022/04/28 06:29:34;;;;;;;11.07;7.32;;;;;;;9.71;68.06;100914.69;1087179;54;20042;-80
2022/04/28 06:30:42;;;;;;;10.07;6.88;;;;;;;9.77;68.11;100916.03;1087471;54;20642;-79
2022/04/28 06:31:46;;;;;;;10.60;6.97;;;;;;;9.81;67.83;100926.34;1087386;54;20050;-79
2022/04/28 06:32:49;;;;;;;10.98;7.55;;;;;;;9.88;67.73;100912.50;1086967;54;20122;-80
2022/04/28 06:33:54;;;;;;;11.35;7.18;;;;;;;9.89;67.54;100914.22;1086913;54;20082;-79
2022/04/28 06:34:56;;;;;;;12.10;8.15;;;;;;;9.93;67.51;100915.66;1088420;39;20575;-81
2022/04/28 06:36:01;;;;;;;11.65;7.43;;;;;;;9.97;67.50;100912.63;1087640;54;20081;-79
2022/04/28 06:37:06;;;;;;;13.30;7.43;;;;;;;10.01;67.30;100915.94;1089279;39;20464;-79
2022/04/28 06:38:11;;;;;;;15.00;8.90;;;;;;;10.01;67.23;100921.28;1088827;39;20481;-79
2022/04/28 06:39:15;;;;;;;16.77;9.48;;;;;;;9.99;67.15;100918.72;1087731;54;20043;-80
2022/04/28 06:40:20;;;;;;;10.88;8.23;;;;;;;10.07;67.29;100925.28;1087614;54;20587;-79
2022/04/28 06:41:22;;;;;;;12.10;7.75;;;;;;;10.10;67.25;100915.22;1087608;54;20061;-80
2022/04/28 06:42:26;;;;;;;15.95;9.80;;;;;;;10.05;66.99;100916.56;1087694;54;20026;-78
2022/04/28 06:43:32;;;;;;;15.35;10.75;;;;;;;10.01;67.02;100915.06;1086936;54;20039;-79
2022/04/28 06:44:36;;;;;;;15.57;9.95;;;;;;;9.94;67.02;100922.72;1088754;46;20099;-78
2022/04/28 06:46:11;;;;;;;14.40;10.25;;;;;;;10.02;67.23;100922.13;1087580;54;20026;-81